createdAt,value
2018-03-18T00:01:56.795Z,-1.10
2018-03-18T00:04:29.706Z,-1.20
2018-03-18T00:06:58.928Z,-1.20
2018-03-18T00:09:27.080Z,-1.20
2018-03-18T00:11:54.656Z,-1.00
2018-03-18T00:14:22.361Z,-1.10
2018-03-18T00:16:49.862Z,-1.10
2018-03-18T00:19:17.406Z,-1.00
2018-03-18T00:22:12.573Z,-1.10
2018-03-18T00:24:40.263Z,-1.10
2018-03-18T00:27:07.774Z,-1.10
2018-03-18T00:29:35.438Z,-1.10
2018-03-18T00:32:02.931Z,-1.10
2018-03-18T00:34:30.513Z,-1.10
2018-03-18T00:36:57.999Z,-1.10
2018-03-18T00:39:27.114Z,-1.10
2018-03-18T00:41:54.643Z,-1.10
2018-03-18T00:44:22.164Z,-1.10
2018-03-18T00:46:49.652Z,-1.10
2018-03-18T00:49:17.180Z,-1.10
2018-03-18T00:51:56.572Z,-1.20
2018-03-18T00:54:24.094Z,-1.10
2018-03-18T00:56:51.587Z,-1.10
2018-03-18T00:59:19.107Z,-1.10
2018-03-18T01:01:47.371Z,-1.10
2018-03-18T01:04:14.908Z,-1.10
2018-03-18T01:06:42.407Z,-1.10
2018-03-18T01:09:10.465Z,-1.10
2018-03-18T01:11:37.996Z,-1.10
2018-03-18T01:14:06.296Z,-1.10
2018-03-18T01:16:33.790Z,-1.10
2018-03-18T01:19:01.328Z,-1.10
2018-03-18T01:21:28.836Z,-1.10
2018-03-18T01:23:56.374Z,-1.10
2018-03-18T01:26:24.625Z,-1.10
2018-03-18T01:28:52.157Z,-1.10
2018-03-18T01:31:19.688Z,-1.10
2018-03-18T01:33:47.213Z,-1.10
2018-03-18T01:36:14.784Z,-1.10
2018-03-18T01:38:42.308Z,-1.10
2018-03-18T01:41:09.824Z,-1.10
2018-03-18T01:43:37.353Z,-1.20
2018-03-18T01:46:05.603Z,-1.10
2018-03-18T01:48:33.127Z,-1.10
2018-03-18T01:51:01.382Z,-1.10
2018-03-18T01:53:28.907Z,-1.10
2018-03-18T01:55:56.403Z,-1.10
2018-03-18T01:58:23.915Z,-1.20
2018-03-18T02:00:52.172Z,-1.20
2018-03-18T02:03:19.699Z,-1.20
2018-03-18T02:05:47.192Z,-1.20
2018-03-18T02:08:14.738Z,-1.10
2018-03-18T02:10:42.287Z,-1.20
2018-03-18T02:13:10.544Z,-1.10
2018-03-18T02:15:38.095Z,-1.10
2018-03-18T02:18:05.611Z,-1.10
2018-03-18T02:20:33.102Z,-1.10
2018-03-18T02:23:00.624Z,-1.10
2018-03-18T02:25:28.121Z,-1.10
2018-03-18T02:27:55.639Z,-1.10
2018-03-18T02:30:23.133Z,-1.20
2018-03-18T02:32:50.634Z,-1.20
2018-03-18T02:35:18.156Z,-1.20
2018-03-18T02:37:45.702Z,-1.20
2018-03-18T02:40:13.957Z,-1.10
2018-03-18T02:42:41.489Z,-1.10
2018-03-18T02:45:08.988Z,-1.10
2018-03-18T02:47:36.520Z,-1.10
2018-03-18T02:50:04.012Z,-1.10
2018-03-18T02:52:31.557Z,-1.20
2018-03-18T02:54:59.078Z,-1.10
2018-03-18T02:57:26.578Z,-1.10
2018-03-18T02:59:54.877Z,-1.20
2018-03-18T03:02:23.137Z,-1.20
2018-03-18T03:04:50.688Z,-1.20
2018-03-18T03:07:18.182Z,-1.20
2018-03-18T03:09:45.707Z,-1.20
2018-03-18T03:12:13.271Z,-1.20
2018-03-18T03:14:40.792Z,-1.30
2018-03-18T03:17:08.309Z,-1.40
2018-03-18T03:19:35.812Z,-1.40
2018-03-18T03:22:03.328Z,-1.30
2018-03-18T03:24:30.913Z,-1.30
2018-03-18T03:26:59.178Z,-1.40
2018-03-18T03:29:26.695Z,-1.40
2018-03-18T03:31:54.188Z,-1.30
2018-03-18T03:34:21.669Z,-1.30
2018-03-18T03:36:49.195Z,-1.30
2018-03-18T03:39:16.716Z,-1.20
2018-03-18T03:41:44.207Z,-1.30
2018-03-18T03:44:11.728Z,-1.30
2018-03-18T03:46:39.244Z,-1.30
2018-03-18T03:49:06.768Z,-1.40
2018-03-18T03:51:34.271Z,-1.40
2018-03-18T03:54:01.788Z,-1.50
2018-03-18T03:56:30.089Z,-1.50
2018-03-18T03:58:57.584Z,-1.50
2018-03-18T04:01:25.116Z,-1.40
2018-03-18T04:03:53.368Z,-1.30
2018-03-18T04:06:20.897Z,-1.30
2018-03-18T04:08:48.379Z,-1.20
2018-03-18T04:11:15.905Z,-1.30
2018-03-18T04:13:43.453Z,-1.30
2018-03-18T04:16:11.741Z,-1.50
2018-03-18T04:18:39.228Z,-1.50
2018-03-18T04:21:06.752Z,-1.40
2018-03-18T04:23:34.253Z,-1.50
2018-03-18T04:26:01.783Z,-1.50
2018-03-18T04:28:29.316Z,-1.50
2018-03-18T04:30:56.817Z,-1.50
2018-03-18T04:33:25.104Z,-1.50
2018-03-18T04:35:53.408Z,-1.60
2018-03-18T04:38:20.906Z,-1.60
2018-03-18T04:40:48.391Z,-1.70
2018-03-18T04:43:15.916Z,-1.80
2018-03-18T04:45:43.404Z,-1.90
2018-03-18T04:48:10.916Z,-1.80
2018-03-18T04:50:38.404Z,-1.80
2018-03-18T04:53:06.692Z,-1.90
2018-03-18T04:55:34.952Z,-2.00
2018-03-18T04:58:02.480Z,-2.00
2018-03-18T05:00:29.983Z,-2.00
2018-03-18T05:02:57.499Z,-2.00
2018-03-18T05:05:25.756Z,-2.00
2018-03-18T05:07:53.273Z,-2.10
2018-03-18T05:10:20.761Z,-2.00
2018-03-18T05:12:48.292Z,-2.10
2018-03-18T05:15:16.585Z,-2.30
2018-03-18T05:17:44.091Z,-2.30
2018-03-18T05:20:11.620Z,-2.40
2018-03-18T05:22:39.110Z,-2.40
2018-03-18T05:25:07.397Z,-2.50
2018-03-18T05:27:35.651Z,-2.50
2018-03-18T05:30:03.139Z,-2.50
2018-03-18T05:32:30.669Z,-2.60
2018-03-18T05:34:58.160Z,-2.60
2018-03-18T05:37:25.680Z,-2.60
2018-03-18T05:39:53.169Z,-2.70
2018-03-18T05:42:20.737Z,-2.70
2018-03-18T05:44:48.230Z,-2.70
2018-03-18T05:47:15.744Z,-2.70
2018-03-18T05:49:43.244Z,-2.80
2018-03-18T05:52:10.770Z,-2.70
2018-03-18T05:54:38.270Z,-2.70
2018-03-18T05:57:06.594Z,-2.50
2018-03-18T05:59:34.083Z,-2.50
2018-03-18T06:02:01.640Z,-2.50
2018-03-18T06:04:29.103Z,-2.50
2018-03-18T06:06:56.638Z,-2.40
2018-03-18T06:09:24.159Z,-2.40
2018-03-18T06:11:51.672Z,-2.40
2018-03-18T06:14:19.159Z,-2.50
2018-03-18T06:16:47.445Z,-2.50
2018-03-18T06:19:14.933Z,-2.50
2018-03-18T06:21:42.452Z,-2.50
2018-03-18T06:24:09.940Z,-2.40
2018-03-18T06:26:37.460Z,-2.40
2018-03-18T06:29:04.948Z,-2.40
2018-03-18T06:31:32.463Z,-2.50
2018-03-18T06:33:59.956Z,-2.40
2018-03-18T06:36:28.245Z,-2.40
2018-03-18T06:38:56.500Z,-2.30
2018-03-18T06:41:24.030Z,-2.40
2018-03-18T06:43:51.520Z,-2.30
2018-03-18T06:46:19.051Z,-2.30
2018-03-18T06:48:46.544Z,-2.20
2018-03-18T06:51:14.072Z,-2.10
2018-03-18T06:53:41.564Z,-2.00
2018-03-18T06:56:09.854Z,-2.00
2018-03-18T06:58:38.120Z,-1.90
2018-03-18T07:01:05.641Z,-1.90
2018-03-18T07:03:33.284Z,-1.90
2018-03-18T07:06:00.820Z,-1.70
2018-03-18T07:08:28.331Z,-1.60
2018-03-18T07:10:55.860Z,-1.50
2018-03-18T07:13:23.389Z,-1.30
2018-03-18T07:15:50.944Z,-1.20
2018-03-18T07:18:18.432Z,-1.10
2018-03-18T07:20:46.711Z,-0.90
2018-03-18T07:23:14.208Z,-0.80
2018-03-18T07:25:41.729Z,-0.70
2018-03-18T07:28:09.979Z,-0.50
2018-03-18T07:30:37.484Z,-0.50
2018-03-18T07:33:05.774Z,-0.60
2018-03-18T07:35:33.716Z,-0.60
2018-03-18T07:38:01.205Z,-0.60
2018-03-18T07:40:28.776Z,-0.60
2018-03-18T07:42:56.304Z,-0.60
2018-03-18T07:45:23.832Z,-0.60
2018-03-18T07:47:51.398Z,-0.50
2018-03-18T07:50:19.018Z,-0.60
2018-03-18T07:52:46.523Z,-0.50
2018-03-18T07:55:15.868Z,-0.60
2018-03-18T07:57:47.419Z,-0.50
2018-03-18T08:00:14.941Z,-0.50
2018-03-18T08:02:42.435Z,-0.40
2018-03-18T08:05:11.194Z,-0.20
2018-03-18T08:07:38.716Z,-0.20
2018-03-18T08:10:08.888Z,-0.20
2018-03-18T08:12:36.376Z,0.10
2018-03-18T08:15:04.672Z,0.30
2018-03-18T08:17:32.152Z,0.30
2018-03-18T08:19:59.641Z,0.50
2018-03-18T08:22:27.163Z,0.80
2018-03-18T08:24:54.651Z,0.70
2018-03-18T08:27:22.932Z,0.60
2018-03-18T08:29:51.199Z,0.70
2018-03-18T08:32:18.709Z,0.70
2018-03-18T08:34:46.196Z,0.60
2018-03-18T08:37:13.716Z,0.70
2018-03-18T08:39:41.244Z,0.90
2018-03-18T08:42:09.357Z,0.90
2018-03-18T08:44:36.840Z,0.90
2018-03-18T08:47:04.370Z,1.00
2018-03-18T08:49:31.885Z,0.90
2018-03-18T08:51:59.431Z,1.10
2018-03-18T08:54:26.924Z,1.40
2018-03-18T08:56:54.439Z,1.40
2018-03-18T09:01:55.628Z,1.10
2018-03-18T09:04:23.131Z,1.10
2018-03-18T09:06:51.157Z,0.80
2018-03-18T09:09:18.648Z,0.80
2018-03-18T09:11:46.967Z,0.80
2018-03-18T09:14:14.457Z,0.80
2018-03-18T09:16:41.975Z,0.80
2018-03-18T09:19:10.076Z,0.70
2018-03-18T09:21:37.625Z,0.60
2018-03-18T09:24:06.182Z,0.60
2018-03-18T09:26:33.803Z,0.70
2018-03-18T09:29:02.142Z,0.90
2018-03-18T09:31:29.630Z,0.80
2018-03-18T09:33:57.161Z,0.80
2018-03-18T09:36:24.648Z,0.80
2018-03-18T09:38:52.184Z,0.90
2018-03-18T09:41:27.262Z,0.90
2018-03-18T09:43:54.771Z,0.80
2018-03-18T09:46:22.288Z,0.80
2018-03-18T09:48:49.956Z,0.60
2018-03-18T09:51:17.576Z,0.60
2018-03-18T09:53:45.072Z,0.40
2018-03-18T09:56:13.017Z,0.30
2018-03-18T09:58:40.560Z,0.20
2018-03-18T10:01:08.134Z,0.20
2018-03-18T10:03:35.797Z,0.30
2018-03-18T10:06:13.683Z,0.40
2018-03-18T10:08:41.213Z,0.40
2018-03-18T10:11:08.725Z,0.50
2018-03-18T10:13:36.264Z,0.40
2018-03-18T10:16:03.864Z,0.50
2018-03-18T10:18:46.313Z,0.70
2018-03-18T10:21:13.963Z,0.70
2018-03-18T10:23:45.348Z,0.80
2018-03-18T10:26:12.924Z,0.80
2018-03-18T10:28:40.746Z,0.70
2018-03-18T10:31:08.282Z,0.70
2018-03-18T10:33:35.819Z,0.50
2018-03-18T10:36:03.903Z,0.30
2018-03-18T10:41:19.756Z,0.40
2018-03-18T10:43:48.008Z,0.60
2018-03-18T10:46:16.644Z,0.60
2018-03-18T10:48:44.169Z,0.90
2018-03-18T10:51:11.623Z,0.90
2018-03-18T10:53:39.140Z,1.00
2018-03-18T10:56:06.623Z,1.00
2018-03-18T10:58:34.312Z,1.00
2018-03-18T11:01:07.386Z,0.90
2018-03-18T11:03:34.916Z,1.10
2018-03-18T11:06:02.406Z,1.10
2018-03-18T11:08:30.868Z,1.00
2018-03-18T11:10:59.171Z,1.20
2018-03-18T11:13:26.789Z,1.30
2018-03-18T11:15:54.298Z,1.10
2018-03-18T11:18:22.785Z,1.30
2018-03-18T11:23:34.199Z,1.20
2018-03-18T11:26:01.816Z,1.20
2018-03-18T11:28:29.339Z,1.20
2018-03-18T11:30:58.376Z,1.40
2018-03-18T11:33:25.964Z,1.70
2018-03-18T11:35:53.480Z,1.70
2018-03-18T11:38:21.033Z,1.70
2018-03-18T11:40:48.562Z,1.80
2018-03-18T11:43:16.048Z,2.00
2018-03-18T11:45:43.569Z,2.30
2018-03-18T11:48:11.056Z,2.30
2018-03-18T11:50:39.367Z,2.10
2018-03-18T11:53:06.959Z,2.00
2018-03-18T12:05:02.900Z,2.30
2018-03-18T12:10:17.678Z,2.10
2018-03-18T12:12:50.023Z,2.10
2018-03-18T12:15:30.694Z,2.00
2018-03-18T12:18:01.017Z,2.10
2018-03-18T12:20:28.544Z,2.00
2018-03-18T12:22:56.051Z,1.90
2018-03-18T12:25:23.610Z,2.00
2018-03-18T12:27:51.114Z,1.80
2018-03-18T12:30:18.680Z,1.50
2018-03-18T12:32:46.163Z,1.50
2018-03-18T12:35:13.698Z,1.60
2018-03-18T12:37:41.205Z,1.60
2018-03-18T12:40:20.552Z,1.70
2018-03-18T12:42:59.842Z,1.80
2018-03-18T12:45:27.370Z,1.90
2018-03-18T12:47:54.875Z,1.90
2018-03-18T12:50:22.461Z,1.90
2018-03-18T12:52:49.970Z,1.80
2018-03-18T12:55:17.536Z,1.70
2018-03-18T12:57:45.032Z,1.70
2018-03-18T13:00:12.553Z,1.60
2018-03-18T13:02:40.036Z,1.60
2018-03-18T13:05:08.322Z,1.60
2018-03-18T13:07:36.641Z,1.70
2018-03-18T13:10:04.201Z,1.70
2018-03-18T13:12:31.696Z,1.70
2018-03-18T13:14:59.224Z,1.80
2018-03-18T13:17:27.473Z,1.80
2018-03-18T13:19:54.996Z,1.80
2018-03-18T13:22:22.597Z,1.70
2018-03-18T13:24:50.173Z,1.80
2018-03-18T13:27:17.676Z,1.90
2018-03-18T13:29:45.181Z,1.70
2018-03-18T13:32:13.439Z,1.50
2018-03-18T13:34:40.988Z,1.50
2018-03-18T13:37:08.472Z,1.50
2018-03-18T13:39:35.995Z,1.50
2018-03-18T13:42:03.482Z,1.50
2018-03-18T13:44:31.004Z,1.60
2018-03-18T13:46:58.484Z,1.60
2018-03-18T13:49:26.004Z,1.60
2018-03-18T13:51:53.500Z,1.60
2018-03-18T13:54:21.054Z,1.50
2018-03-18T13:56:48.550Z,1.60
2018-03-18T13:59:16.066Z,1.50
2018-03-18T14:01:43.582Z,1.60
2018-03-18T14:04:11.094Z,1.70
2018-03-18T14:06:39.354Z,1.90
2018-03-18T14:09:06.947Z,1.90
2018-03-18T14:11:34.437Z,2.10
2018-03-18T14:14:03.164Z,2.40
2018-03-18T14:16:30.674Z,2.40
2018-03-18T14:18:58.189Z,2.60
2018-03-18T14:21:25.724Z,2.60
2018-03-18T14:24:01.859Z,2.60
2018-03-18T14:26:29.400Z,2.70
2018-03-18T14:28:57.803Z,2.90
2018-03-18T14:31:25.396Z,2.90
2018-03-18T14:33:52.909Z,2.90
2018-03-18T14:36:20.416Z,2.80
2018-03-18T14:38:47.996Z,2.70
2018-03-18T14:41:15.511Z,2.50
2018-03-18T14:43:43.023Z,2.60
2018-03-18T14:46:10.623Z,2.50
2018-03-18T14:48:38.305Z,2.50
2018-03-18T14:51:05.818Z,2.60
2018-03-18T14:53:33.369Z,2.50
2018-03-18T14:56:00.896Z,2.50
2018-03-18T14:58:28.428Z,2.30
2018-03-18T15:00:55.994Z,2.30
2018-03-18T15:03:23.533Z,2.10
2018-03-18T15:05:51.185Z,1.90
2018-03-18T15:08:18.967Z,1.90
2018-03-18T15:10:46.637Z,1.90
2018-03-18T15:13:14.449Z,1.80
2018-03-18T15:15:41.976Z,1.80
2018-03-18T15:18:09.696Z,1.80
2018-03-18T15:20:38.030Z,1.90
2018-03-18T15:23:05.805Z,1.90
2018-03-18T15:25:35.575Z,1.90
2018-03-18T15:28:03.196Z,1.80
2018-03-18T15:30:30.696Z,1.90
2018-03-18T15:32:58.952Z,2.00
2018-03-18T15:35:26.488Z,2.00
2018-03-18T15:37:54.877Z,2.00
2018-03-18T15:40:22.464Z,2.00
2018-03-18T15:42:49.944Z,2.10
2018-03-18T15:45:17.463Z,2.10
2018-03-18T15:47:49.132Z,2.20
2018-03-18T15:50:17.364Z,2.10
2018-03-18T15:52:45.023Z,2.10
2018-03-18T15:55:12.924Z,2.00
2018-03-18T15:57:40.472Z,2.00
2018-03-18T16:00:08.085Z,2.00
2018-03-18T16:02:35.707Z,2.00
2018-03-18T16:05:03.254Z,1.90
2018-03-18T16:07:30.809Z,1.90
2018-03-18T16:09:58.326Z,1.80
2018-03-18T16:12:25.831Z,1.70
2018-03-18T16:14:53.344Z,1.70
2018-03-18T16:17:20.836Z,1.70
2018-03-18T16:19:48.360Z,1.70
2018-03-18T16:22:21.931Z,1.70
2018-03-18T16:24:51.556Z,1.70
2018-03-18T16:27:19.065Z,1.50
2018-03-18T16:29:59.317Z,1.50
2018-03-18T16:32:26.836Z,1.50
2018-03-18T16:34:55.481Z,1.40
2018-03-18T16:37:28.550Z,1.40
2018-03-18T16:40:11.444Z,1.40
2018-03-18T16:42:39.451Z,1.30
2018-03-18T16:45:08.104Z,1.30
2018-03-18T16:47:35.593Z,1.20
2018-03-18T16:50:03.880Z,1.30
2018-03-18T16:52:31.423Z,1.30
2018-03-18T16:54:59.008Z,1.40
2018-03-18T16:57:26.845Z,1.40
2018-03-18T16:59:54.439Z,1.30
2018-03-18T17:02:21.933Z,1.30
2018-03-18T17:04:49.442Z,1.20
2018-03-18T17:07:16.929Z,1.20
2018-03-18T17:09:45.225Z,1.00
2018-03-18T17:12:13.472Z,0.90
2018-03-18T17:14:40.994Z,0.90
2018-03-18T17:17:10.736Z,0.90
2018-03-18T17:19:38.272Z,0.90
2018-03-18T17:22:05.778Z,0.80
2018-03-18T17:24:33.320Z,0.80
2018-03-18T17:27:01.652Z,0.80
2018-03-18T17:29:29.338Z,0.80
2018-03-18T17:31:56.932Z,0.80
2018-03-18T17:34:24.484Z,0.70
2018-03-18T17:36:51.993Z,0.70
2018-03-18T17:39:19.515Z,0.60
2018-03-18T17:41:47.008Z,0.60
2018-03-18T17:44:26.382Z,0.50
2018-03-18T17:47:05.732Z,0.50
2018-03-18T17:49:44.964Z,0.40
2018-03-18T17:52:24.959Z,0.40
2018-03-18T17:55:05.005Z,0.40
2018-03-18T17:57:45.549Z,0.30
2018-03-18T18:00:15.027Z,0.30
2018-03-18T18:02:45.752Z,0.30
2018-03-18T18:05:14.208Z,0.30
2018-03-18T18:07:41.737Z,0.20
2018-03-18T18:10:10.097Z,0.20
2018-03-18T18:12:37.622Z,0.20
2018-03-18T18:15:05.477Z,0.20
2018-03-18T18:17:33.778Z,0.10
2018-03-18T18:20:01.591Z,0.10
2018-03-18T18:22:40.004Z,0.10
2018-03-18T18:25:07.498Z,0.00
2018-03-18T18:27:35.150Z,0.00
2018-03-18T18:30:02.683Z,0.00
2018-03-18T18:32:30.246Z,0.10
2018-03-18T18:34:57.776Z,0.10
2018-03-18T18:37:25.532Z,0.10
2018-03-18T18:39:53.069Z,0.00
2018-03-18T18:42:20.636Z,0.00
2018-03-18T18:44:48.252Z,0.00
2018-03-18T18:47:16.712Z,0.00
2018-03-18T18:49:44.600Z,0.00
2018-03-18T18:52:13.912Z,0.00
2018-03-18T18:54:41.421Z,-0.10
2018-03-18T18:57:08.950Z,0.00
2018-03-18T18:59:36.524Z,0.00
2018-03-18T19:02:04.047Z,-0.10
2018-03-18T19:04:31.548Z,-0.10
2018-03-18T19:06:59.897Z,-0.10
2018-03-18T19:09:27.396Z,-0.10
2018-03-18T19:11:54.925Z,-0.10
2018-03-18T19:14:23.260Z,0.00
2018-03-18T19:16:50.775Z,0.00
2018-03-18T19:19:19.028Z,-0.10
2018-03-18T19:21:46.558Z,-0.10
2018-03-18T19:24:14.055Z,0.00
2018-03-18T19:26:42.287Z,-0.10
2018-03-18T19:29:09.797Z,0.00
2018-03-18T19:31:46.688Z,-0.10
2018-03-18T19:34:14.973Z,-0.10
2018-03-18T19:36:42.748Z,-0.10
2018-03-18T19:39:10.384Z,-0.10
2018-03-18T19:41:38.761Z,-0.10
2018-03-18T19:44:06.316Z,-0.10
2018-03-18T19:46:34.735Z,-0.10
2018-03-18T19:49:02.260Z,-0.10
2018-03-18T19:51:30.061Z,-0.10
2018-03-18T19:53:57.644Z,-0.20
2018-03-18T19:56:25.268Z,-0.20
2018-03-18T19:58:52.977Z,-0.20
2018-03-18T20:01:30.530Z,-0.10
2018-03-18T20:03:58.077Z,-0.20
2018-03-18T20:06:25.907Z,-0.20
2018-03-18T20:08:53.496Z,-0.20
2018-03-18T20:11:21.066Z,-0.20
2018-03-18T20:13:49.040Z,-0.20
2018-03-18T20:16:16.591Z,-0.20
2018-03-18T20:18:44.873Z,-0.20
2018-03-18T20:21:13.177Z,-0.30
2018-03-18T20:23:40.692Z,-0.30
2018-03-18T20:26:08.374Z,-0.20
2018-03-18T20:28:35.946Z,-0.30
2018-03-18T20:31:04.616Z,-0.30
2018-03-18T20:33:32.131Z,-0.30
2018-03-18T20:35:59.881Z,-0.30
2018-03-18T20:38:27.548Z,-0.40
2018-03-18T20:40:55.127Z,-0.30
2018-03-18T20:43:22.681Z,-0.30
2018-03-18T20:45:50.368Z,-0.30
2018-03-18T20:48:17.967Z,-0.30
2018-03-18T20:50:45.677Z,-0.30
2018-03-18T20:53:23.284Z,-0.40
2018-03-18T20:55:51.643Z,-0.40
2018-03-18T20:58:19.197Z,-0.40
2018-03-18T21:00:46.720Z,-0.40
2018-03-18T21:03:14.471Z,-0.50
2018-03-18T21:05:45.391Z,-0.40
2018-03-18T21:08:13.059Z,-0.40
2018-03-18T21:10:40.566Z,-0.40
2018-03-18T21:13:08.122Z,-0.50
2018-03-18T21:15:35.894Z,-0.50
2018-03-18T21:18:03.420Z,-0.50
2018-03-18T21:20:31.069Z,-0.60
2018-03-18T21:22:58.561Z,-0.60
2018-03-18T21:25:26.106Z,-0.70
2018-03-18T21:27:53.633Z,-0.60
2018-03-18T21:30:21.130Z,-0.60
2018-03-18T21:32:48.649Z,-0.60
2018-03-18T21:35:16.172Z,-0.60
2018-03-18T21:37:43.669Z,-0.60
2018-03-18T21:40:11.186Z,-0.70
2018-03-18T21:42:39.436Z,-0.70
2018-03-18T21:45:06.955Z,-0.70
2018-03-18T21:47:34.454Z,-0.60
2018-03-18T21:50:03.857Z,-0.70
2018-03-18T21:52:31.348Z,-0.80
2018-03-18T21:54:58.877Z,-0.70
2018-03-18T21:57:27.158Z,-0.80
2018-03-18T21:59:54.711Z,-0.80
2018-03-18T22:02:22.199Z,-0.80
2018-03-18T22:04:50.517Z,-0.80
2018-03-18T22:07:18.028Z,-0.80
2018-03-18T22:09:45.701Z,-0.80
2018-03-18T22:12:13.354Z,-0.90
2018-03-18T22:14:40.884Z,-0.90
2018-03-18T22:17:08.371Z,-0.90
2018-03-18T22:19:36.677Z,-0.80
2018-03-18T22:22:04.166Z,-0.80
2018-03-18T22:24:32.520Z,-0.70
2018-03-18T22:26:59.996Z,-0.70
2018-03-18T22:29:33.306Z,-0.70
2018-03-18T22:32:00.832Z,-0.80
2018-03-18T22:34:28.437Z,-0.70
2018-03-18T22:36:56.692Z,-0.70
2018-03-18T22:39:24.227Z,-0.70
2018-03-18T22:41:51.725Z,-0.70
2018-03-18T22:44:19.267Z,-0.70
2018-03-18T22:46:46.768Z,-0.70
2018-03-18T22:49:14.317Z,-0.70
2018-03-18T22:51:41.808Z,-0.70
2018-03-18T22:54:09.336Z,-0.70
2018-03-18T22:56:36.843Z,-0.70
2018-03-18T22:59:04.356Z,-0.70
2018-03-18T23:01:33.085Z,-0.70
2018-03-18T23:04:01.493Z,-0.70
2018-03-18T23:06:28.995Z,-0.70
2018-03-18T23:08:56.516Z,-0.70
2018-03-18T23:11:25.480Z,-0.70
2018-03-18T23:13:53.052Z,-0.70
2018-03-18T23:16:20.557Z,-0.70
2018-03-18T23:18:48.844Z,-0.80
2018-03-18T23:21:16.331Z,-0.80
2018-03-18T23:23:43.847Z,-0.80
2018-03-18T23:26:11.335Z,-0.80
2018-03-18T23:28:38.893Z,-0.70
2018-03-18T23:31:07.148Z,-0.80
2018-03-18T23:33:34.673Z,-0.80
2018-03-18T23:36:02.153Z,-0.80
2018-03-18T23:38:30.458Z,-0.80
2018-03-18T23:41:00.532Z,-0.80
2018-03-18T23:43:28.043Z,-0.90
2018-03-18T23:45:55.542Z,-0.90
2018-03-18T23:48:23.064Z,-0.90
2018-03-18T23:50:50.548Z,-0.90
2018-03-18T23:53:18.128Z,-0.90
2018-03-18T23:55:45.617Z,-0.90
2018-03-18T23:58:13.144Z,-1.00
